Time;durP1;ratioP1;P1;durP2;ratioP2;P2;SDS_P1;SDS_P2;PMS_P1;PMS_P2;Temp;Humidity;BMP_temperature;BMP_pressure;BME280_temperature;BME280_humidity;BME280_pressure;Samples;Min_cycle;Max_cycle;Signal;HPM_P1;HPM_P2
2023/07/01 00:02:04;;;;;;;4.00;3.60;;;;;;;14.11;89.72;100197.97;4882436;29;20680;-85
2023/07/01 00:04:30;;;;;;;3.63;3.38;;;;;;;14.14;90.12;100205.78;4865484;29;20064;-82
2023/07/01 00:06:57;;;;;;;3.92;3.28;;;;;;;14.17;89.38;100199.56;4884602;29;20041;-82
2023/07/01 00:09:24;;;;;;;4.03;3.72;;;;;;;14.21;89.49;100204.69;4868901;29;20477;-82
2023/07/01 00:11:50;;;;;;;3.75;3.45;;;;;;;14.22;89.32;100192.38;4852989;29;20072;-83
2023/07/01 00:14:17;;;;;;;3.20;3.00;;;;;;;14.19;88.91;100193.34;4856531;29;20044;-82
2023/07/01 00:16:43;;;;;;;3.47;3.17;;;;;;;14.15;89.55;100183.81;4869747;29;20052;-81
2023/07/01 00:19:10;;;;;;;5.07;2.75;;;;;;;14.08;89.16;100182.31;4878272;29;20044;-83
2023/07/01 00:21:36;;;;;;;4.35;3.13;;;;;;;14.00;89.75;100186.91;4864287;29;20381;-83
2023/07/01 00:24:03;;;;;;;5.28;3.78;;;;;;;13.92;90.47;100181.88;4863564;29;20093;-82
2023/07/01 00:26:29;;;;;;;3.13;3.03;;;;;;;13.87;90.35;100174.16;4868686;29;20412;-83
2023/07/01 00:28:56;;;;;;;4.15;2.75;;;;;;;13.84;90.40;100171.59;4866822;29;20069;-82
2023/07/01 00:31:22;;;;;;;2.72;2.45;;;;;;;13.81;90.50;100169.06;4863749;29;20831;-84
2023/07/01 00:33:49;;;;;;;3.10;2.90;;;;;;;13.83;90.87;100163.75;4860300;29;20053;-82
2023/07/01 00:36:15;;;;;;;3.60;3.13;;;;;;;13.82;91.00;100162.91;4861047;29;20184;-83
2023/07/01 00:38:42;;;;;;;6.20;2.78;;;;;;;13.87;90.50;100160.13;4863296;29;20051;-83
2023/07/01 00:41:08;;;;;;;3.25;2.95;;;;;;;13.90;90.03;100154.78;4847214;29;20045;-86
2023/07/01 00:43:35;;;;;;;2.60;2.40;;;;;;;13.98;89.69;100155.38;4867366;29;20052;-83
2023/07/01 00:46:01;;;;;;;5.95;2.20;;;;;;;14.10;89.66;100156.78;4866996;29;20057;-82
2023/07/01 00:48:29;;;;;;;4.55;2.60;;;;;;;14.20;88.70;100147.69;4861468;29;20096;-84
2023/07/01 00:50:56;;;;;;;3.15;2.95;;;;;;;14.33;88.27;100142.88;4862639;29;20073;-81
2023/07/01 00:53:23;;;;;;;3.25;2.45;;;;;;;14.41;87.95;100140.00;4862317;29;20045;-81
2023/07/01 00:55:50;;;;;;;4.93;2.45;;;;;;;14.48;87.40;100136.22;4863860;29;20066;-84
2023/07/01 00:58:17;;;;;;;3.33;2.92;;;;;;;14.55;87.55;100140.41;4866046;29;20085;-82
2023/07/01 01:00:44;;;;;;;5.47;2.28;;;;;;;14.59;87.10;100146.44;4861967;29;20047;-83
2023/07/01 01:03:35;;;;;;;5.18;2.28;;;;;;;14.60;87.38;100134.97;4864987;29;20158;-81
2023/07/01 01:06:06;;;;;;;2.70;2.33;;;;;;;14.63;86.83;100140.13;4866808;29;20067;-82
2023/07/01 01:08:44;;;;;;;5.97;2.88;;;;;;;14.67;86.49;100133.03;4862131;29;20041;-80
2023/07/01 01:11:14;;;;;;;2.15;2.05;;;;;;;14.70;86.20;100135.53;4879775;29;20064;-82
2023/07/01 01:13:44;;;;;;;4.20;2.45;;;;;;;14.73;85.89;100124.91;4865020;29;20048;-81
2023/07/01 01:16:11;;;;;;;5.55;2.38;;;;;;;14.76;85.74;100122.16;4862542;29;20120;-83
2023/07/01 01:18:42;;;;;;;3.03;2.42;;;;;;;14.77;85.62;100125.66;4862815;29;20151;-82
2023/07/01 01:21:10;;;;;;;2.40;2.17;;;;;;;14.78;85.14;100119.47;4844147;29;20045;-81
2023/07/01 01:23:42;;;;;;;3.42;1.45;;;;;;;14.77;84.92;100118.63;4842917;29;20130;-81
2023/07/01 01:26:22;;;;;;;2.65;1.75;;;;;;;14.79;84.61;100116.78;4878236;29;20050;-87
2023/07/01 01:28:51;;;;;;;2.70;2.13;;;;;;;14.82;84.53;100116.69;4875969;29;20117;-82
2023/07/01 01:31:19;;;;;;;3.25;1.65;;;;;;;14.82;84.10;100114.06;4868965;29;20037;-81
2023/07/01 01:33:48;;;;;;;2.22;1.98;;;;;;;14.87;83.84;100112.13;4860212;29;20105;-82
2023/07/01 01:36:27;;;;;;;4.03;2.67;;;;;;;14.90;83.40;100113.78;4859616;29;20045;-80
2023/07/01 01:38:59;;;;;;;4.20;2.47;;;;;;;14.93;83.22;100105.75;4854176;29;20041;-81
2023/07/01 01:41:40;;;;;;;8.20;2.63;;;;;;;14.96;83.08;100113.53;4859417;29;21257;-81
2023/07/01 01:44:16;;;;;;;1.60;1.50;;;;;;;14.96;83.19;100104.78;4861249;29;20652;-81
2023/07/01 01:46:44;;;;;;;1.80;1.63;;;;;;;14.98;82.59;100098.56;4859232;29;20046;-81
2023/07/01 01:49:12;;;;;;;2.03;1.45;;;;;;;15.00;82.55;100099.34;4858104;29;20038;-83
2023/07/01 01:51:41;;;;;;;4.03;1.90;;;;;;;15.02;82.25;100091.41;4857788;29;20055;-84
2023/07/01 01:54:10;;;;;;;1.55;1.45;;;;;;;15.01;82.18;100089.66;4845769;29;20115;-88
2023/07/01 01:56:38;;;;;;;1.77;1.60;;;;;;;15.02;81.70;100092.25;4848932;29;20050;-86
2023/07/01 01:59:05;;;;;;;1.67;1.10;;;;;;;15.04;81.56;100084.28;4857874;29;20136;-85
2023/07/01 02:01:32;;;;;;;4.40;1.30;;;;;;;15.04;81.28;100079.88;4851070;29;20113;-86
2023/07/01 02:03:58;;;;;;;1.02;1.02;;;;;;;15.03;81.05;100072.00;4856161;29;20893;-82
2023/07/01 02:06:25;;;;;;;3.38;1.60;;;;;;;15.02;81.08;100065.03;4841759;29;20256;-83
2023/07/01 02:08:51;;;;;;;2.92;1.40;;;;;;;15.00;80.90;100070.34;4863939;29;20207;-87
2023/07/01 02:11:18;;;;;;;3.08;1.50;;;;;;;14.98;80.90;100061.66;4847029;29;20471;-82
2023/07/01 02:13:45;;;;;;;1.52;1.23;;;;;;;14.94;80.85;100060.06;4865855;29;20131;-84
2023/07/01 02:16:11;;;;;;;2.08;1.40;;;;;;;14.92;80.83;100055.75;4876033;29;20524;-87
2023/07/01 02:18:38;;;;;;;3.85;1.80;;;;;;;14.92;81.08;100050.47;4860778;29;20045;-81
2023/07/01 02:21:06;;;;;;;3.53;2.10;;;;;;;14.92;81.04;100045.22;4833479;29;20482;-82
2023/07/01 02:23:33;;;;;;;3.03;1.10;;;;;;;14.91;81.08;100046.13;4852921;29;20358;-82
2023/07/01 02:25:59;;;;;;;4.35;2.03;;;;;;;14.91;80.95;100048.75;4844140;29;20038;-82
2023/07/01 02:28:26;;;;;;;2.00;1.45;;;;;;;14.87;80.99;100037.47;4870111;29;20101;-82
2023/07/01 02:30:53;;;;;;;3.95;1.73;;;;;;;14.83;81.22;100044.59;4864919;29;20046;-83
2023/07/01 02:33:19;;;;;;;1.52;1.42;;;;;;;14.82;81.32;100034.13;4850837;29;20052;-83
2023/07/01 02:35:46;;;;;;;3.35;2.08;;;;;;;14.81;81.17;100029.78;4867505;29;20041;-83
2023/07/01 02:38:13;;;;;;;4.95;1.60;;;;;;;14.77;81.31;100031.69;4877769;29;20049;-82
2023/07/01 02:40:40;;;;;;;1.90;1.45;;;;;;;14.72;81.59;100020.44;4860458;29;20045;-82
2023/07/01 02:43:06;;;;;;;5.32;1.73;;;;;;;14.64;81.94;100011.94;4859117;29;20042;-85
2023/07/01 02:45:32;;;;;;;2.40;1.75;;;;;;;14.56;82.22;100009.56;4875640;29;20038;-87
2023/07/01 02:47:59;;;;;;;1.92;1.65;;;;;;;14.51;82.39;100000.94;4870938;29;20071;-82
2023/07/01 02:50:26;;;;;;;1.92;1.40;;;;;;;14.43;82.45;99998.63;4831859;29;20056;-82
2023/07/01 02:52:52;;;;;;;3.13;2.03;;;;;;;14.36;83.05;99995.31;4862699;29;20539;-82
2023/07/01 02:55:19;;;;;;;3.45;2.47;;;;;;;14.34;83.64;99996.28;4864316;29;20144;-83
2023/07/01 02:57:45;;;;;;;2.47;2.28;;;;;;;14.31;83.84;99999.03;4860749;29;20496;-82
2023/07/01 03:00:14;;;;;;;2.03;1.55;;;;;;;14.30;83.50;99979.75;4863910;29;20053;-82
2023/07/01 03:02:40;;;;;;;3.40;1.48;;;;;;;14.33;83.46;99986.69;4864768;29;20473;-82
2023/07/01 03:05:09;;;;;;;2.15;2.00;;;;;;;14.36;83.49;99987.41;4865087;29;20055;-80
2023/07/01 03:07:36;;;;;;;2.90;1.60;;;;;;;14.41;83.67;99991.69;4858441;29;20124;-81
2023/07/01 03:10:03;;;;;;;5.07;3.22;;;;;;;14.48;83.56;99987.91;4844646;29;20497;-82
2023/07/01 03:12:29;;;;;;;4.75;2.05;;;;;;;14.55;83.12;99989.41;4874348;29;20445;-82
2023/07/01 03:14:55;;;;;;;2.90;2.03;;;;;;;14.65;82.66;99990.84;4864168;29;20037;-82
2023/07/01 03:17:24;;;;;;;3.50;2.13;;;;;;;14.70;82.34;99988.88;4863144;29;20045;-83
2023/07/01 03:19:50;;;;;;;2.28;1.45;;;;;;;14.74;82.33;99991.41;4846469;29;20785;-82
2023/07/01 03:22:17;;;;;;;4.43;2.13;;;;;;;14.74;82.36;99986.97;4846252;29;20064;-82
2023/07/01 03:24:44;;;;;;;1.65;1.52;;;;;;;14.78;82.50;99983.31;4845393;29;20038;-83
2023/07/01 03:27:11;;;;;;;1.63;1.52;;;;;;;14.86;82.11;99983.03;4866469;29;20065;-83
2023/07/01 03:29:37;;;;;;;1.70;1.60;;;;;;;14.88;81.79;99979.41;4855242;29;20113;-82
2023/07/01 03:32:04;;;;;;;4.22;2.15;;;;;;;14.89;81.31;99970.59;4847304;29;20133;-81
2023/07/01 03:34:31;;;;;;;2.55;1.50;;;;;;;14.95;81.45;99974.78;4859468;29;20477;-81
2023/07/01 03:36:57;;;;;;;2.42;2.22;;;;;;;15.01;81.09;99971.06;4861724;29;20041;-81
2023/07/01 03:39:24;;;;;;;7.03;1.52;;;;;;;15.07;80.53;99967.31;4870919;29;20102;-82
2023/07/01 03:41:50;;;;;;;4.80;1.67;;;;;;;15.12;80.28;99963.63;4843561;29;20052;-81
2023/07/01 03:44:17;;;;;;;1.42;1.33;;;;;;;15.17;79.66;99961.63;4844893;29;20054;-82
2023/07/01 03:46:43;;;;;;;1.92;1.50;;;;;;;15.21;79.36;99957.09;4858032;29;20049;-87
2023/07/01 03:49:09;;;;;;;2.78;1.63;;;;;;;15.23;78.84;99950.00;4837985;29;20053;-81
2023/07/01 03:51:36;;;;;;;2.15;1.45;;;;;;;15.29;78.77;99951.53;4862789;29;20524;-81
2023/07/01 03:54:02;;;;;;;4.35;1.80;;;;;;;15.33;78.25;99954.00;4858367;29;20056;-82
2023/07/01 03:56:29;;;;;;;4.63;1.52;;;;;;;15.38;77.91;99944.13;4864573;29;20044;-81
2023/07/01 03:58:57;;;;;;;2.25;1.80;;;;;;;15.43;77.26;99949.19;4872287;29;20046;-83
2023/07/01 04:01:23;;;;;;;1.67;1.58;;;;;;;15.47;77.16;99944.66;4846824;29;20073;-82
2023/07/01 04:03:53;;;;;;;2.47;1.20;;;;;;;15.51;76.71;99936.56;4847936;29;20053;-80
2023/07/01 04:06:19;;;;;;;2.65;1.35;;;;;;;15.59;76.29;99940.66;4862926;29;20041;-82
2023/07/01 04:08:46;;;;;;;1.23;0.82;;;;;;;15.63;76.05;99929.94;4871111;29;20049;-82
2023/07/01 04:11:13;;;;;;;1.20;1.20;;;;;;;15.65;75.98;99929.84;4857456;29;20144;-81
2023/07/01 04:13:40;;;;;;;4.93;1.58;;;;;;;15.68;75.81;99932.34;4861714;29;20049;-81
2023/07/01 04:16:07;;;;;;;2.03;1.60;;;;;;;15.71;75.57;99929.59;4877899;29;20056;-81
2023/07/01 04:18:33;;;;;;;0.90;0.90;;;;;;;15.74;75.41;99933.91;4861359;29;20046;-81
2023/07/01 04:21:03;;;;;;;1.20;0.95;;;;;;;15.75;75.67;99928.56;4858108;29;20379;-81
2023/07/01 04:23:30;;;;;;;2.65;1.23;;;;;;;15.77;75.70;99926.69;4845491;29;20049;-81
2023/07/01 04:25:57;;;;;;;2.45;1.25;;;;;;;15.78;76.01;99927.56;4853910;29;20073;-81
2023/07/01 04:28:23;;;;;;;4.18;1.60;;;;;;;15.77;76.13;99913.50;4863028;29;20045;-80
2023/07/01 04:30:51;;;;;;;3.15;1.38;;;;;;;15.76;76.03;99908.28;4879827;29;20128;-82
2023/07/01 04:33:17;;;;;;;1.88;1.20;;;;;;;15.74;76.33;99911.00;4852257;29;20050;-81
2023/07/01 04:35:43;;;;;;;1.95;1.30;;;;;;;15.78;76.28;99906.47;4861186;29;20045;-82
2023/07/01 04:38:10;;;;;;;1.55;1.40;;;;;;;15.81;75.96;99899.31;4861134;29;20049;-84
2023/07/01 04:40:37;;;;;;;1.35;1.33;;;;;;;15.85;76.14;99903.53;4862545;29;20043;-82
2023/07/01 04:43:03;;;;;;;1.23;1.15;;;;;;;15.93;75.95;99904.97;4864068;29;20033;-84
2023/07/01 04:45:33;;;;;;;1.70;1.60;;;;;;;16.01;75.74;99900.22;4861686;29;20045;-81
2023/07/01 04:48:00;;;;;;;1.52;1.40;;;;;;;16.08;75.45;99900.81;4861255;29;20044;-84
2023/07/01 04:50:27;;;;;;;3.55;2.58;;;;;;;16.15;74.86;99900.47;4856519;29;20053;-81
2023/07/01 04:52:53;;;;;;;5.15;1.48;;;;;;;16.20;74.26;99889.69;4866410;29;20048;-81
2023/07/01 04:55:20;;;;;;;4.40;2.50;;;;;;;16.25;74.38;99892.13;4845149;29;20045;-83
2023/07/01 04:57:46;;;;;;;2.15;1.50;;;;;;;16.36;73.82;99884.56;4861888;29;20050;-81
2023/07/01 05:00:14;;;;;;;1.30;1.17;;;;;;;16.46;73.24;99885.03;4874573;29;20041;-82
2023/07/01 05:02:40;;;;;;;3.47;1.83;;;;;;;16.48;72.66;99884.03;4858492;29;20046;-81
2023/07/01 05:05:08;;;;;;;1.33;1.20;;;;;;;16.56;72.44;99878.38;4866427;29;20106;-81
2023/07/01 05:07:34;;;;;;;3.50;1.55;;;;;;;16.61;71.58;99873.75;4852505;29;20042;-82
2023/07/01 05:10:01;;;;;;;1.98;1.65;;;;;;;16.66;71.32;99873.50;4876775;29;20037;-83
2023/07/01 05:12:27;;;;;;;4.30;2.08;;;;;;;16.70;71.20;99869.81;4860827;29;20041;-81
2023/07/01 05:14:55;;;;;;;2.78;1.77;;;;;;;16.75;70.49;99867.81;4859131;29;20580;-81
2023/07/01 05:17:22;;;;;;;1.17;1.10;;;;;;;16.85;70.40;99861.16;4852367;29;20129;-83
2023/07/01 05:19:49;;;;;;;5.72;1.08;;;;;;;17.04;69.77;99868.25;4842083;29;20137;-83
2023/07/01 05:22:16;;;;;;;2.38;1.38;;;;;;;17.19;68.03;99856.94;4858109;29;20057;-81
2023/07/01 05:24:43;;;;;;;1.73;1.60;;;;;;;17.36;67.21;99856.09;4840362;29;20063;-86
2023/07/01 05:27:09;;;;;;;2.42;1.23;;;;;;;17.47;67.01;99852.88;4849402;29;20049;-85
2023/07/01 05:29:36;;;;;;;8.52;1.83;;;;;;;17.62;66.22;99853.88;4863929;29;20042;-84
2023/07/01 05:32:03;;;;;;;5.28;1.50;;;;;;;17.70;65.79;99842.91;4857806;29;20063;-81
2023/07/01 05:34:31;;;;;;;2.50;0.90;;;;;;;17.70;65.45;99856.13;4863117;29;20042;-81
2023/07/01 05:36:57;;;;;;;2.67;1.13;;;;;;;17.66;65.54;99846.66;4848664;29;20124;-80
2023/07/01 05:39:24;;;;;;;1.75;1.00;;;;;;;17.63;65.16;99845.03;4844826;29;20141;-80
2023/07/01 05:41:51;;;;;;;5.88;1.55;;;;;;;17.63;65.23;99842.38;4861572;29;20060;-85
2023/07/01 05:44:17;;;;;;;1.42;1.33;;;;;;;17.61;65.82;99841.63;4859498;29;20061;-84
2023/07/01 05:46:44;;;;;;;1.20;1.00;;;;;;;17.63;65.98;99844.19;4859643;29;20037;-80
2023/07/01 05:49:10;;;;;;;1.52;1.42;;;;;;;17.64;65.13;99841.44;4860406;29;20037;-82
2023/07/01 05:51:38;;;;;;;2.22;1.90;;;;;;;17.67;65.37;99843.91;4859840;29;20052;-82
2023/07/01 05:54:05;;;;;;;3.72;1.60;;;;;;;17.77;65.29;99840.78;4860145;29;20056;-81
2023/07/01 05:56:31;;;;;;;1.33;1.27;;;;;;;17.81;64.80;99843.22;4850798;29;20067;-83
2023/07/01 05:58:59;;;;;;;2.35;1.38;;;;;;;17.82;64.71;99847.59;4869008;29;20048;-82
2023/07/01 06:01:25;;;;;;;2.03;1.05;;;;;;;17.89;64.76;99841.97;4843710;29;21284;-82
2023/07/01 06:03:52;;;;;;;2.17;1.27;;;;;;;18.01;64.55;99839.53;4848818;29;20049;-81
2023/07/01 06:06:18;;;;;;;4.30;1.88;;;;;;;18.10;64.06;99835.56;4860418;29;20438;-82
2023/07/01 06:08:45;;;;;;;1.33;1.30;;;;;;;18.20;63.93;99833.28;4854965;29;20385;-84
2023/07/01 06:11:12;;;;;;;1.65;1.15;;;;;;;18.26;63.17;99824.13;4859160;29;20072;-82
2023/07/01 06:13:43;;;;;;;3.72;1.00;;;;;;;18.29;63.67;99824.84;4839422;29;20065;-83
2023/07/01 06:16:10;;;;;;;1.63;0.88;;;;;;;18.37;63.68;99820.91;4859533;29;20107;-82
2023/07/01 06:18:36;;;;;;;1.45;0.90;;;;;;;18.41;63.22;99819.78;4851477;29;20041;-86
2023/07/01 06:21:06;;;;;;;1.75;1.65;;;;;;;18.39;63.25;99819.03;4860182;29;20512;-81
2023/07/01 06:23:34;;;;;;;3.85;0.82;;;;;;;18.38;63.69;99818.16;4850134;29;20068;-83
2023/07/01 06:26:04;;;;;;;5.50;1.80;;;;;;;18.43;63.30;99813.47;4858776;29;20037;-82
2023/07/01 06:28:31;;;;;;;0.65;0.60;;;;;;;18.47;63.90;99814.16;4858792;29;20037;-83
2023/07/01 06:30:59;;;;;;;2.13;1.45;;;;;;;18.54;63.58;99815.53;4842505;29;20069;-82
2023/07/01 06:33:25;;;;;;;2.15;1.05;;;;;;;18.55;63.42;99811.94;4866615;29;20079;-83
2023/07/01 06:35:52;;;;;;;2.50;1.40;;;;;;;18.55;63.46;99804.00;4853621;29;20097;-82
2023/07/01 06:38:18;;;;;;;2.83;1.20;;;;;;;18.51;64.09;99795.38;4850894;29;20541;-81
2023/07/01 06:40:45;;;;;;;1.58;1.15;;;;;;;18.51;63.86;99805.97;4861162;29;20128;-81
2023/07/01 06:43:12;;;;;;;2.45;1.45;;;;;;;18.50;63.86;99801.59;4854146;29;20041;-82
2023/07/01 06:45:44;;;;;;;3.53;1.25;;;;;;;18.54;64.30;99796.13;4843688;29;20571;-84
2023/07/01 06:48:10;;;;;;;2.63;1.40;;;;;;;18.55;64.39;99795.19;4870099;29;20077;-82
2023/07/01 06:50:37;;;;;;;1.98;1.45;;;;;;;18.54;64.50;99788.16;4859961;29;20040;-85
2023/07/01 06:53:03;;;;;;;2.75;0.90;;;;;;;18.45;64.85;99787.75;4855196;29;20054;-81
2023/07/01 06:55:30;;;;;;;1.38;1.00;;;;;;;18.42;65.26;99793.22;4850026;29;20097;-82
2023/07/01 06:57:57;;;;;;;3.13;1.27;;;;;;;18.38;65.30;99786.34;4863528;29;20069;-83
2023/07/01 07:00:24;;;;;;;3.63;1.52;;;;;;;18.31;65.97;99780.56;4874862;29;20050;-83
2023/07/01 07:02:51;;;;;;;2.35;1.23;;;;;;;18.22;65.99;99780.22;4862878;29;20041;-82
2023/07/01 07:05:17;;;;;;;1.98;1.77;;;;;;;18.22;66.91;99775.75;4871597;29;20044;-84
2023/07/01 07:07:44;;;;;;;1.48;1.35;;;;;;;18.23;66.84;99766.88;4862677;29;20042;-84
2023/07/01 07:10:10;;;;;;;1.33;1.10;;;;;;;18.28;66.14;99766.63;4843656;29;20064;-83
2023/07/01 07:12:37;;;;;;;3.58;1.10;;;;;;;18.29;65.46;99773.63;4860204;29;20052;-82
2023/07/01 07:15:04;;;;;;;2.35;1.38;;;;;;;18.34;65.59;99771.56;4856842;29;20041;-82
2023/07/01 07:17:30;;;;;;;1.70;1.25;;;;;;;18.41;64.82;99770.31;4860762;29;20041;-83
2023/07/01 07:19:57;;;;;;;0.90;0.90;;;;;;;18.42;64.41;99766.72;4860503;29;20045;-81
2023/07/01 07:22:28;;;;;;;1.20;1.10;;;;;;;18.42;63.80;99769.38;4870488;29;20092;-86
2023/07/01 07:24:57;;;;;;;2.97;1.42;;;;;;;18.47;63.66;99766.44;4859080;29;20044;-83
2023/07/01 07:27:27;;;;;;;1.45;1.40;;;;;;;18.52;62.92;99759.09;4847029;29;20053;-86
2023/07/01 07:29:53;;;;;;;2.58;1.55;;;;;;;18.56;62.89;99757.13;4857857;29;20057;-86
2023/07/01 07:32:20;;;;;;;3.15;1.42;;;;;;;18.60;63.08;99756.03;4866762;29;20120;-84
2023/07/01 07:34:48;;;;;;;3.25;1.23;;;;;;;18.67;62.82;99757.38;4866295;29;20051;-81
2023/07/01 07:37:14;;;;;;;1.88;1.35;;;;;;;18.79;62.77;99753.19;4855350;29;20045;-81
2023/07/01 07:39:41;;;;;;;1.70;1.60;;;;;;;18.85;61.79;99743.06;4872908;29;20040;-81
2023/07/01 07:42:07;;;;;;;2.95;1.90;;;;;;;18.89;61.71;99745.53;4871996;29;20045;-81
2023/07/01 07:44:34;;;;;;;1.30;1.05;;;;;;;18.94;61.29;99747.03;4859102;29;20116;-82
2023/07/01 07:47:00;;;;;;;3.45;1.60;;;;;;;19.00;61.49;99743.16;4863102;29;20037;-83
2023/07/01 07:49:27;;;;;;;5.00;1.40;;;;;;;19.04;61.41;99739.38;4864347;29;20125;-80
2023/07/01 07:51:53;;;;;;;2.25;1.60;;;;;;;19.06;61.19;99733.97;4848671;29;20607;-82
2023/07/01 07:54:20;;;;;;;2.65;1.33;;;;;;;19.07;61.24;99733.88;4857881;29;20054;-81
2023/07/01 07:56:47;;;;;;;3.67;1.50;;;;;;;19.05;61.27;99732.28;4876453;29;20041;-81
2023/07/01 07:59:14;;;;;;;2.75;1.17;;;;;;;18.98;61.58;99731.75;4839384;29;20041;-83
2023/07/01 08:01:40;;;;;;;1.38;1.25;;;;;;;18.95;61.98;99730.16;4870637;29;20036;-81
2023/07/01 08:04:07;;;;;;;2.88;1.77;;;;;;;19.00;61.86;99735.19;4865289;29;20542;-81
2023/07/01 08:06:36;;;;;;;1.15;1.15;;;;;;;19.00;61.57;99729.88;4865211;29;20546;-81
2023/07/01 08:09:03;;;;;;;4.18;1.42;;;;;;;18.99;61.04;99728.16;4879295;29;20052;-81
2023/07/01 08:11:29;;;;;;;2.28;1.58;;;;;;;18.96;60.23;99725.72;4862865;29;20041;-85
2023/07/01 08:13:56;;;;;;;5.43;1.95;;;;;;;18.98;60.63;99729.97;4863584;29;20049;-80
2023/07/01 08:16:23;;;;;;;2.25;1.23;;;;;;;19.07;60.12;99723.25;4861330;29;20041;-85
2023/07/01 08:18:49;;;;;;;1.58;1.10;;;;;;;19.17;59.45;99721.75;4859869;29;20060;-81
2023/07/01 08:21:18;;;;;;;1.40;1.20;;;;;;;19.25;58.65;99718.66;4858549;29;20057;-84
2023/07/01 08:23:44;;;;;;;3.08;1.40;;;;;;;19.27;58.16;99721.25;4864571;29;20045;-84
2023/07/01 08:26:11;;;;;;;2.38;1.17;;;;;;;19.27;58.04;99719.44;4856521;29;20472;-84
2023/07/01 08:28:38;;;;;;;3.28;1.67;;;;;;;19.30;58.78;99710.44;4839632;29;20084;-81
2023/07/01 08:31:05;;;;;;;1.77;1.50;;;;;;;19.39;58.23;99719.66;4855980;29;20503;-82
2023/07/01 08:33:33;;;;;;;1.98;1.80;;;;;;;19.51;57.85;99718.88;4868354;29;20041;-81
2023/07/01 08:36:00;;;;;;;4.28;1.50;;;;;;;19.63;57.49;99718.16;4867022;29;20037;-83
2023/07/01 08:38:28;;;;;;;1.45;1.35;;;;;;;19.78;57.04;99724.28;4880372;29;20055;-83
2023/07/01 08:41:01;;;;;;;2.67;1.63;;;;;;;19.92;56.63;99720.81;4871649;29;20049;-81
2023/07/01 08:43:27;;;;;;;6.80;1.83;;;;;;;20.09;55.95;99710.91;4859418;29;20764;-84
2023/07/01 08:46:02;;;;;;;2.60;1.60;;;;;;;20.15;55.66;99711.38;4867193;29;20128;-82
2023/07/01 08:48:33;;;;;;;2.42;1.70;;;;;;;20.16;55.56;99713.06;4855410;29;20125;-82
2023/07/01 08:51:19;;;;;;;2.15;1.95;;;;;;;20.25;55.36;99711.63;4845610;29;20041;-81
2023/07/01 08:53:46;;;;;;;2.67;1.48;;;;;;;20.33;55.41;99703.16;4861328;29;20041;-87
2023/07/01 08:56:13;;;;;;;3.63;2.08;;;;;;;20.41;55.52;99698.19;4862766;29;20037;-81
2023/07/01 08:58:41;;;;;;;2.15;1.35;;;;;;;20.59;54.96;99705.94;4861074;29;20141;-85
2023/07/01 09:01:08;;;;;;;2.63;1.70;;;;;;;20.74;54.49;99693.44;4865167;29;20037;-83
2023/07/01 09:03:36;;;;;;;2.75;1.38;;;;;;;20.95;54.32;99694.66;4847291;29;20396;-84
2023/07/01 09:06:05;;;;;;;2.88;1.90;;;;;;;21.11;53.70;99693.63;4852776;29;20064;-81
2023/07/01 09:08:33;;;;;;;2.80;1.30;;;;;;;21.21;53.57;99693.84;4856907;29;20033;-82
2023/07/01 09:11:01;;;;;;;2.17;1.60;;;;;;;21.32;53.16;99691.28;4850204;29;20143;-81
2023/07/01 09:13:28;;;;;;;2.10;1.50;;;;;;;21.39;52.86;99679.25;4849685;29;20148;-84
2023/07/01 09:15:54;;;;;;;2.38;1.60;;;;;;;21.35;53.29;99695.56;4869763;29;20159;-85
2023/07/01 09:18:28;;;;;;;3.75;1.60;;;;;;;21.37;52.96;99690.97;4868072;29;20045;-81
2023/07/01 09:20:56;;;;;;;1.67;1.58;;;;;;;21.29;53.63;99695.03;4850325;29;20081;-84
2023/07/01 09:23:34;;;;;;;1.75;1.50;;;;;;;21.58;53.19;99693.97;4870076;29;20132;-81
2023/07/01 09:26:17;;;;;;;2.00;1.40;;;;;;;21.58;51.99;99688.66;4860427;29;20469;-81
2023/07/01 09:28:46;;;;;;;2.33;1.30;;;;;;;21.52;52.64;99686.38;4871969;29;20041;-81
2023/07/01 09:31:16;;;;;;;3.63;1.50;;;;;;;21.60;52.76;99692.03;4884129;29;20096;-81
2023/07/01 09:34:06;;;;;;;3.40;1.40;;;;;;;21.79;52.65;99684.44;4855134;29;20052;-80
2023/07/01 09:36:33;;;;;;;3.22;1.65;;;;;;;21.91;51.57;99680.06;4877981;29;20069;-81
2023/07/01 09:39:01;;;;;;;2.70;1.52;;;;;;;21.95;51.60;99691.34;4848872;29;20486;-82
2023/07/01 09:41:28;;;;;;;5.05;2.00;;;;;;;21.96;51.53;99687.72;4856329;29;20060;-81
2023/07/01 09:43:57;;;;;;;3.65;1.80;;;;;;;21.64;51.96;99689.06;4849009;29;20044;-80
2023/07/01 09:46:41;;;;;;;2.03;1.70;;;;;;;21.14;53.63;99683.59;4872018;29;20218;-84
2023/07/01 09:49:08;;;;;;;2.13;1.42;;;;;;;20.93;54.43;99679.78;4863274;29;20041;-84
2023/07/01 09:51:47;;;;;;;6.10;2.30;;;;;;;20.85;55.00;99674.97;4881167;29;20044;-82
2023/07/01 09:54:31;;;;;;;3.50;1.80;;;;;;;20.76;55.10;99681.75;4864677;29;20044;-83
2023/07/01 09:56:59;;;;;;;2.35;1.40;;;;;;;20.47;56.30;99684.50;4884097;29;20099;-84
2023/07/01 09:59:27;;;;;;;3.75;1.70;;;;;;;20.51;56.45;99682.50;4858033;29;20053;-82
2023/07/01 10:01:55;;;;;;;1.83;1.73;;;;;;;20.52;56.75;99683.34;4882477;29;20041;-80
2023/07/01 10:04:25;;;;;;;2.33;1.80;;;;;;;20.59;56.57;99682.00;4855005;29;20077;-82
2023/07/01 10:06:54;;;;;;;2.53;2.33;;;;;;;20.63;56.54;99679.03;4875914;29;20067;-84
2023/07/01 10:09:23;;;;;;;3.55;1.60;;;;;;;20.59;56.92;99682.84;4864683;29;20552;-85
2023/07/01 10:11:53;;;;;;;1.75;1.58;;;;;;;20.58;57.14;99678.47;4853045;29;20064;-82
2023/07/01 10:14:24;;;;;;;3.63;1.65;;;;;;;20.43;57.34;99675.03;4867414;29;20049;-81
2023/07/01 10:16:51;;;;;;;8.40;2.53;;;;;;;20.39;57.93;99677.97;4870129;29;20119;-82
2023/07/01 10:19:32;;;;;;;5.18;2.08;;;;;;;20.43;58.34;99679.50;4865566;29;20712;-83
2023/07/01 10:22:29;;;;;;;2.90;2.10;;;;;;;20.40;58.72;99669.06;4869035;29;20785;-82
2023/07/01 10:25:01;;;;;;;2.38;2.05;;;;;;;20.34;58.82;99662.34;4858228;29;20049;-82
2023/07/01 10:27:43;;;;;;;4.68;1.48;;;;;;;20.25;59.05;99669.13;4873811;29;20049;-82
2023/07/01 10:30:11;;;;;;;4.05;1.60;;;;;;;20.16;59.33;99669.72;4868514;29;20064;-82
2023/07/01 10:32:38;;;;;;;2.85;1.33;;;;;;;20.15;59.67;99666.22;4867952;29;20045;-81
2023/07/01 10:35:05;;;;;;;2.05;1.80;;;;;;;20.27;59.48;99674.31;4879616;29;20089;-81
2023/07/01 10:37:34;;;;;;;2.03;1.55;;;;;;;20.23;59.68;99671.00;4875209;29;20041;-83
2023/07/01 10:40:30;;;;;;;1.88;1.75;;;;;;;20.30;59.09;99667.00;4865417;29;20045;-81
2023/07/01 10:43:29;;;;;;;2.92;1.45;;;;;;;20.24;59.51;99658.59;4868797;29;20048;-82
2023/07/01 10:46:23;;;;;;;2.10;1.85;;;;;;;20.02;61.00;99673.25;4847102;29;20081;-82
2023/07/01 10:49:05;;;;;;;4.20;1.92;;;;;;;20.08;61.08;99664.06;4873212;29;20116;-82
2023/07/01 10:51:53;;;;;;;2.58;1.33;;;;;;;20.11;61.07;99667.34;4878651;29;20037;-82
2023/07/01 10:54:38;;;;;;;3.00;2.50;;;;;;;20.24;61.37;99672.72;4865478;29;20132;-83
2023/07/01 10:57:18;;;;;;;3.90;2.00;;;;;;;20.25;61.45;99668.28;4864120;29;20045;-82
2023/07/01 10:59:45;;;;;;;2.30;1.70;;;;;;;20.33;61.79;99669.47;4868868;29;20044;-81
2023/07/01 11:02:50;;;;;;;1.92;1.77;;;;;;;20.61;60.96;99662.34;4879946;29;20089;-82
2023/07/01 11:05:16;;;;;;;2.45;1.60;;;;;;;20.62;61.44;99657.84;4857394;29;20139;-85
2023/07/01 11:07:44;;;;;;;4.05;1.00;;;;;;;20.52;62.53;99678.91;4858718;29;20783;-86
2023/07/01 11:10:11;;;;;;;1.83;1.35;;;;;;;20.26;64.25;99672.63;4862322;29;20037;-86
2023/07/01 11:12:38;;;;;;;3.22;1.65;;;;;;;20.11;65.29;99661.19;4865098;29;20037;-85
2023/07/01 11:15:05;;;;;;;2.22;1.33;;;;;;;20.02;65.75;99664.44;4879252;29;20124;-87
2023/07/01 11:17:31;;;;;;;0.98;0.98;;;;;;;20.00;66.10;99659.22;4860370;29;20037;-83
2023/07/01 11:19:59;;;;;;;3.42;1.83;;;;;;;20.05;66.41;99680.16;4865575;29;20049;-87
2023/07/01 11:22:26;;;;;;;5.32;1.85;;;;;;;20.12;66.61;99670.88;4863812;29;20061;-84
2023/07/01 11:24:52;;;;;;;2.38;1.58;;;;;;;20.15;65.89;99668.00;4863627;29;20071;-87
2023/07/01 11:27:21;;;;;;;1.60;1.50;;;;;;;20.06;66.89;99684.53;4850487;29;20049;-85
2023/07/01 11:29:48;;;;;;;2.00;1.70;;;;;;;19.97;67.60;99675.34;4865798;29;20048;-81
2023/07/01 11:32:15;;;;;;;1.55;1.38;;;;;;;19.94;67.54;99676.41;4866777;29;20039;-83
2023/07/01 11:34:46;;;;;;;3.05;1.60;;;;;;;19.90;67.46;99676.72;4868987;29;20132;-84
2023/07/01 11:37:25;;;;;;;1.85;1.38;;;;;;;19.78;67.88;99667.69;4863275;29;20041;-84
2023/07/01 11:39:52;;;;;;;4.20;2.15;;;;;;;19.72;68.47;99665.41;4854311;29;20069;-82